createdAt,value
2024-03-06T00:00:11.537Z,18.63
2024-03-06T00:02:56.885Z,18.08
2024-03-06T00:05:42.414Z,19.02
2024-03-06T00:08:29.255Z,17.63
2024-03-06T00:11:16.905Z,18.25
2024-03-06T00:14:06.588Z,17.25
2024-03-06T00:16:56.930Z,17.55
2024-03-06T00:19:42.779Z,18.40
2024-03-06T00:22:28.267Z,16.77
2024-03-06T00:25:13.798Z,16.83
2024-03-06T00:28:01.982Z,17.52
2024-03-06T00:30:47.642Z,16.25
2024-03-06T00:33:33.219Z,17.27
2024-03-06T00:36:18.914Z,16.20
2024-03-06T00:39:05.772Z,16.45
2024-03-06T00:41:51.487Z,15.93
2024-03-06T00:44:37.206Z,16.27
2024-03-06T00:47:23.087Z,16.60
2024-03-06T00:50:09.089Z,16.77
2024-03-06T00:52:55.232Z,16.75
2024-03-06T00:55:41.584Z,16.42
2024-03-06T00:58:27.145Z,16.58
2024-03-06T01:01:12.473Z,17.80
2024-03-06T01:03:58.203Z,16.48
2024-03-06T01:06:43.555Z,15.77
2024-03-06T01:09:30.369Z,18.30
2024-03-06T01:12:15.769Z,20.00
2024-03-06T01:15:01.204Z,17.60
2024-03-06T01:17:47.957Z,17.05
2024-03-06T01:20:33.842Z,16.45
2024-03-06T01:23:19.451Z,15.32
2024-03-06T01:26:05.344Z,15.27
2024-03-06T01:28:50.753Z,16.13
2024-03-06T01:31:36.627Z,17.48
2024-03-06T01:34:23.203Z,18.85
2024-03-06T01:37:08.675Z,18.83
2024-03-06T01:39:54.196Z,18.33
2024-03-06T01:42:39.733Z,17.85
2024-03-06T01:45:25.353Z,17.25
2024-03-06T01:48:13.246Z,17.77
2024-03-06T01:51:01.262Z,15.93
2024-03-06T01:53:46.578Z,16.38
2024-03-06T01:56:34.235Z,15.75
2024-03-06T01:59:31.766Z,16.38
2024-03-06T02:02:22.479Z,17.08
2024-03-06T02:05:08.339Z,16.40
2024-03-06T02:07:55.174Z,15.38
2024-03-06T02:10:48.383Z,17.16
2024-03-06T02:13:34.742Z,16.90
2024-03-06T02:16:20.139Z,18.25
2024-03-06T02:19:09.421Z,18.17
2024-03-06T02:21:55.249Z,16.85
2024-03-06T02:24:45.985Z,18.08
2024-03-06T02:27:32.704Z,17.80
2024-03-06T02:30:24.603Z,17.13
2024-03-06T02:33:10.628Z,17.73
2024-03-06T02:35:55.979Z,18.35
2024-03-06T02:38:41.609Z,17.88
2024-03-06T02:41:26.997Z,17.02
2024-03-06T02:44:12.797Z,17.08
2024-03-06T02:47:00.842Z,17.60
2024-03-06T02:49:46.362Z,17.92
2024-03-06T02:52:34.138Z,18.42
2024-03-06T02:55:19.366Z,16.80
2024-03-06T02:58:05.323Z,16.13
2024-03-06T03:00:53.046Z,17.35
2024-03-06T03:03:38.239Z,17.63
2024-03-06T03:06:25.193Z,16.52
2024-03-06T03:09:12.979Z,17.80
2024-03-06T03:11:58.466Z,18.70
2024-03-06T03:14:44.270Z,17.50
2024-03-06T03:17:30.529Z,19.38
2024-03-06T03:20:18.014Z,18.40
2024-03-06T03:23:04.013Z,19.27
2024-03-06T03:25:52.795Z,20.73
2024-03-06T03:28:41.561Z,21.77
2024-03-06T03:31:26.906Z,21.33
2024-03-06T03:34:12.450Z,21.38
2024-03-06T03:36:58.013Z,22.77
2024-03-06T03:39:47.546Z,24.88
2024-03-06T03:42:33.238Z,25.73
2024-03-06T03:45:18.566Z,26.58
2024-03-06T03:48:05.129Z,26.65
2024-03-06T03:50:50.796Z,24.85
2024-03-06T03:53:36.797Z,25.75
2024-03-06T03:56:23.060Z,25.75
2024-03-06T03:59:08.830Z,26.85
2024-03-06T04:01:54.151Z,26.10
2024-03-06T04:04:39.800Z,26.63
2024-03-06T04:07:25.433Z,27.42
2024-03-06T04:10:12.509Z,27.15
2024-03-06T04:13:00.937Z,24.23
2024-03-06T04:15:46.635Z,24.15
2024-03-06T04:18:34.789Z,23.38
2024-03-06T04:21:20.186Z,23.50
2024-03-06T04:24:06.130Z,23.67
2024-03-06T04:26:51.733Z,21.63
2024-03-06T04:29:39.496Z,22.05
2024-03-06T04:32:25.753Z,21.10
2024-03-06T04:35:11.935Z,20.73
2024-03-06T04:37:57.741Z,19.83
2024-03-06T04:40:43.073Z,21.98
2024-03-06T04:43:28.461Z,20.60
2024-03-06T04:46:15.486Z,21.60
2024-03-06T04:49:00.947Z,20.75
2024-03-06T04:51:46.626Z,19.55
2024-03-06T04:54:32.169Z,20.38
2024-03-06T04:57:17.921Z,20.05
2024-03-06T05:00:09.670Z,19.45
2024-03-06T05:58:10.385Z,24.35
2024-03-06T06:00:57.764Z,25.42
2024-03-06T06:03:43.562Z,26.13
2024-03-06T06:06:29.527Z,26.02
2024-03-06T06:09:16.967Z,28.30
2024-03-06T06:12:03.021Z,27.90
2024-03-06T06:14:48.408Z,27.60
2024-03-06T06:17:35.001Z,28.45
2024-03-06T06:20:21.470Z,27.33
2024-03-06T06:23:07.141Z,29.42
2024-03-06T06:25:55.405Z,29.10
2024-03-06T06:28:43.411Z,27.85
2024-03-06T06:31:29.675Z,29.77
2024-03-06T06:34:17.526Z,29.02
2024-03-06T06:37:03.434Z,28.17
2024-03-06T06:39:49.529Z,27.35
2024-03-06T06:42:37.394Z,29.42
2024-03-06T06:45:23.878Z,30.08
2024-03-06T06:48:10.437Z,29.02
2024-03-06T06:50:56.169Z,29.33
2024-03-06T06:53:44.671Z,30.17
2024-03-06T06:56:32.494Z,30.15
2024-03-06T06:59:18.442Z,29.58
2024-03-06T07:02:07.147Z,29.40
2024-03-06T07:04:54.010Z,29.48
2024-03-06T07:07:39.917Z,30.65
2024-03-06T07:10:25.329Z,27.88
2024-03-06T07:13:13.151Z,27.77
2024-03-06T07:15:59.340Z,27.60
2024-03-06T07:18:45.210Z,26.52
2024-03-06T07:21:30.614Z,24.63
2024-03-06T07:24:16.169Z,25.63
2024-03-06T07:27:04.500Z,25.95
2024-03-06T07:29:49.972Z,24.60
2024-03-06T07:32:38.074Z,25.63
2024-03-06T07:35:23.718Z,25.55
2024-03-06T07:38:09.219Z,24.85
2024-03-06T07:40:54.848Z,26.77
2024-03-06T07:43:40.294Z,27.10
2024-03-06T07:46:26.650Z,27.08
2024-03-06T07:49:12.256Z,25.48
2024-03-06T07:51:59.137Z,23.08
2024-03-06T07:54:47.171Z,23.88
2024-03-06T07:57:34.751Z,23.02
2024-03-06T08:00:20.868Z,22.95
2024-03-06T08:03:06.484Z,23.52
2024-03-06T08:05:55.227Z,21.65
2024-03-06T08:08:45.525Z,21.73
2024-03-06T08:11:32.919Z,22.42
2024-03-06T08:14:18.674Z,22.17
2024-03-06T08:17:04.297Z,22.25
2024-03-06T08:19:49.706Z,21.88
2024-03-06T08:22:47.265Z,21.30
2024-03-06T08:25:34.172Z,22.50
2024-03-06T08:28:19.861Z,21.55
2024-03-06T08:31:05.345Z,21.35
2024-03-06T08:33:51.248Z,21.50
2024-03-06T08:36:36.967Z,20.38
2024-03-06T08:39:24.745Z,18.88
2024-03-06T08:42:13.603Z,18.70
2024-03-06T08:44:59.159Z,17.98
2024-03-06T08:47:45.834Z,17.33
2024-03-06T08:50:31.305Z,17.50
2024-03-06T08:53:17.914Z,17.05
2024-03-06T08:56:03.784Z,17.77
2024-03-06T08:58:49.321Z,17.75
2024-03-06T09:01:34.991Z,15.75
2024-03-06T09:04:20.562Z,16.48
2024-03-06T09:07:06.682Z,18.23
2024-03-06T09:09:54.682Z,16.30
2024-03-06T09:12:40.579Z,16.45
2024-03-06T09:15:26.907Z,15.70
2024-03-06T09:18:12.632Z,15.18
2024-03-06T09:20:58.616Z,15.43
2024-03-06T09:23:44.315Z,19.00
2024-03-06T09:26:32.250Z,19.15
2024-03-06T09:29:18.052Z,17.08
2024-03-06T09:32:03.783Z,16.48
2024-03-06T09:34:49.608Z,18.98
2024-03-06T09:37:35.116Z,17.63
2024-03-06T09:40:22.855Z,16.85
2024-03-06T09:43:08.812Z,18.10
2024-03-06T09:45:54.285Z,18.08
2024-03-06T09:48:47.356Z,18.15
2024-03-06T09:51:33.233Z,16.85
2024-03-06T09:54:20.590Z,18.02
2024-03-06T09:57:06.313Z,18.08
2024-03-06T09:59:53.233Z,17.40
2024-03-06T10:02:40.331Z,17.05
2024-03-06T10:05:26.135Z,17.75
2024-03-06T10:08:11.886Z,16.85
2024-03-06T10:10:57.883Z,17.67
2024-03-06T10:13:43.607Z,17.23
2024-03-06T10:16:29.034Z,17.08
2024-03-06T10:19:19.421Z,16.85
2024-03-06T10:22:09.408Z,17.13
2024-03-06T10:24:58.498Z,16.73
2024-03-06T10:27:44.399Z,17.52
2024-03-06T10:30:29.904Z,16.80
2024-03-06T10:33:19.321Z,17.35
2024-03-06T10:36:06.312Z,18.33
2024-03-06T10:38:52.841Z,18.55
2024-03-06T10:41:42.037Z,18.05
2024-03-06T10:44:28.619Z,17.83
2024-03-06T10:47:14.957Z,20.42
2024-03-06T10:50:01.989Z,18.38
2024-03-06T10:52:49.336Z,18.42
2024-03-06T10:55:38.674Z,17.15
2024-03-06T10:58:25.192Z,17.25
2024-03-06T11:01:11.505Z,17.65
2024-03-06T11:03:58.113Z,18.02
2024-03-06T11:06:45.966Z,16.73
2024-03-06T11:09:39.778Z,16.65
2024-03-06T11:12:41.252Z,20.58
2024-03-06T11:15:26.845Z,18.98
2024-03-06T11:18:33.226Z,18.38
2024-03-06T11:21:25.076Z,18.40
2024-03-06T11:24:19.068Z,17.17
2024-03-06T11:27:12.814Z,18.77
2024-03-06T11:30:22.470Z,16.63
2024-03-06T11:33:13.416Z,18.33
2024-03-06T11:36:21.955Z,16.75
2024-03-06T11:39:09.657Z,20.05
2024-03-06T11:41:55.100Z,20.13
2024-03-06T11:44:55.117Z,21.88
2024-03-06T11:48:01.646Z,26.52
2024-03-06T11:50:47.707Z,20.17
2024-03-06T11:53:35.426Z,20.08
2024-03-06T11:56:23.485Z,18.23
2024-03-06T11:59:10.964Z,17.23
2024-03-06T12:02:08.316Z,17.27
2024-03-06T12:04:54.809Z,17.33
2024-03-06T12:07:48.260Z,16.40
2024-03-06T12:10:40.265Z,16.98
2024-03-06T12:13:26.209Z,17.13
2024-03-06T12:16:12.800Z,16.20
2024-03-06T12:18:59.109Z,15.93
2024-03-06T12:21:44.704Z,18.27
2024-03-06T12:24:30.459Z,16.25
2024-03-06T12:27:15.974Z,15.60
2024-03-06T12:30:01.743Z,14.98
2024-03-06T12:33:00.529Z,15.13
2024-03-06T12:35:46.358Z,15.98
2024-03-06T12:38:32.186Z,16.45
2024-03-06T12:41:17.936Z,16.20
2024-03-06T12:44:04.324Z,16.77
2024-03-06T12:46:50.670Z,15.98
2024-03-06T12:49:36.093Z,15.57
2024-03-06T12:52:21.587Z,14.52
2024-03-06T12:55:10.007Z,14.05
2024-03-06T12:57:55.592Z,15.40
2024-03-06T13:00:41.996Z,15.18
2024-03-06T13:03:27.340Z,15.75
2024-03-06T13:06:15.127Z,14.93
2024-03-06T13:09:00.984Z,15.05
2024-03-06T13:11:46.839Z,17.63
2024-03-06T13:14:32.326Z,17.38
2024-03-06T13:17:17.912Z,17.27
2024-03-06T13:20:03.896Z,15.75
2024-03-06T13:22:49.710Z,14.52
2024-03-06T13:25:35.444Z,15.02
2024-03-06T13:28:22.385Z,14.27
2024-03-06T13:31:08.411Z,14.85
2024-03-06T13:33:54.735Z,14.38
2024-03-06T13:36:40.036Z,12.55
2024-03-06T13:39:26.097Z,12.02
2024-03-06T13:42:14.521Z,12.43
2024-03-06T13:44:59.925Z,13.65
2024-03-06T13:47:46.291Z,12.35
2024-03-06T13:50:32.220Z,12.00
2024-03-06T13:53:18.396Z,12.32
2024-03-06T13:56:04.426Z,11.75
2024-03-06T13:58:49.827Z,12.20
2024-03-06T14:01:37.546Z,14.05
2024-03-06T14:04:23.289Z,12.52
2024-03-06T14:07:08.966Z,11.43
2024-03-06T14:09:54.424Z,10.27
2024-03-06T14:12:40.542Z,10.00
2024-03-06T14:15:27.179Z,10.88
2024-03-06T14:18:12.855Z,11.40
2024-03-06T14:20:58.722Z,11.63
2024-03-06T14:23:45.673Z,10.77
2024-03-06T14:26:33.896Z,10.70
2024-03-06T14:29:19.383Z,11.48
2024-03-06T14:32:08.059Z,10.20
2024-03-06T14:34:58.119Z,8.95
2024-03-06T14:37:43.693Z,10.32
2024-03-06T14:40:29.401Z,8.95
2024-03-06T14:43:14.941Z,8.45
2024-03-06T14:46:03.295Z,9.10
2024-03-06T14:48:48.855Z,9.50
2024-03-06T14:51:34.563Z,9.32
2024-03-06T14:54:24.210Z,8.30
2024-03-06T14:57:10.215Z,9.52
2024-03-06T14:59:58.299Z,10.00
2024-03-06T15:02:45.713Z,10.38
2024-03-06T15:05:33.160Z,9.32
2024-03-06T15:08:20.907Z,7.88
2024-03-06T15:11:07.333Z,7.75
2024-03-06T15:13:53.186Z,8.13
2024-03-06T15:16:41.135Z,8.88
2024-03-06T15:19:26.557Z,8.20
2024-03-06T15:22:12.366Z,8.02
2024-03-06T15:24:57.820Z,8.50
2024-03-06T15:27:43.786Z,8.50
2024-03-06T15:30:29.786Z,8.77
2024-03-06T15:33:15.019Z,7.40
2024-03-06T15:36:01.292Z,7.15
2024-03-06T15:38:49.002Z,6.82
2024-03-06T15:41:34.467Z,8.35
2024-03-06T15:44:20.785Z,7.07
2024-03-06T15:47:10.463Z,7.35
2024-03-06T15:49:56.794Z,8.00
2024-03-06T15:52:42.591Z,7.63
2024-03-06T15:55:28.206Z,8.18
2024-03-06T15:58:13.549Z,8.38
2024-03-06T16:01:01.436Z,9.30
2024-03-06T16:03:52.912Z,10.50
2024-03-06T16:06:40.986Z,9.40
2024-03-06T16:09:27.364Z,9.88
2024-03-06T16:12:12.987Z,11.00
2024-03-06T16:14:58.723Z,9.77
2024-03-06T16:17:44.573Z,9.88
2024-03-06T16:20:30.100Z,11.32
2024-03-06T16:23:15.431Z,10.27
2024-03-06T16:26:01.244Z,11.35
2024-03-06T16:28:46.917Z,11.98
2024-03-06T16:31:33.580Z,11.82
2024-03-06T16:34:24.392Z,14.07
2024-03-06T16:37:12.553Z,12.00
2024-03-06T16:39:57.850Z,11.55
2024-03-06T16:42:43.819Z,10.93
2024-03-06T16:45:29.642Z,12.88
2024-03-06T16:48:15.110Z,14.85
2024-03-06T16:51:04.105Z,18.23
2024-03-06T16:53:49.851Z,21.00
2024-03-06T16:56:35.582Z,22.50
2024-03-06T16:59:21.288Z,28.70
2024-03-06T17:02:06.981Z,32.13
2024-03-06T17:04:53.499Z,30.55
2024-03-06T17:07:39.288Z,29.33
2024-03-06T17:10:24.885Z,22.75
2024-03-06T17:13:10.323Z,25.33
2024-03-06T17:15:56.145Z,20.88
2024-03-06T17:18:41.835Z,20.17
2024-03-06T17:21:27.753Z,20.27
2024-03-06T17:24:13.835Z,17.60
2024-03-06T17:27:01.679Z,21.63
2024-03-06T17:29:49.347Z,23.77
2024-03-06T17:32:35.197Z,26.63
2024-03-06T17:35:21.313Z,46.25
2024-03-06T17:38:07.055Z,51.28
2024-03-06T17:40:55.820Z,44.58
2024-03-06T17:43:41.137Z,34.90
2024-03-06T17:46:27.225Z,37.05
2024-03-06T17:49:12.844Z,45.80
2024-03-06T17:51:59.439Z,59.25
2024-03-06T17:54:44.856Z,61.17
2024-03-06T17:57:30.211Z,90.95
2024-03-06T18:00:17.096Z,63.35
2024-03-06T18:03:02.561Z,47.13
2024-03-06T18:05:48.951Z,36.53
2024-03-06T18:08:34.468Z,31.25
2024-03-06T18:11:21.292Z,29.52
2024-03-06T18:14:09.436Z,24.52
2024-03-06T18:16:55.033Z,22.50
2024-03-06T18:19:45.239Z,24.35
2024-03-06T18:22:30.652Z,20.35
2024-03-06T18:25:16.453Z,21.50
2024-03-06T18:28:02.052Z,20.73
2024-03-06T18:30:47.782Z,19.95
2024-03-06T18:33:33.739Z,18.95
2024-03-06T18:36:21.672Z,15.38
2024-03-06T18:39:08.983Z,17.25
2024-03-06T18:41:59.043Z,16.98
2024-03-06T18:44:50.739Z,18.40
2024-03-06T18:47:37.435Z,16.15
2024-03-06T18:50:25.108Z,14.52
2024-03-06T18:53:11.204Z,14.60
2024-03-06T18:55:57.705Z,15.55
2024-03-06T18:58:43.282Z,21.10
2024-03-06T19:01:29.623Z,17.17
2024-03-06T19:04:19.573Z,54.03
2024-03-06T19:07:05.621Z,55.03
2024-03-06T19:09:51.140Z,34.17
2024-03-06T19:12:38.752Z,62.22
2024-03-06T19:15:24.118Z,42.70
2024-03-06T19:18:11.517Z,49.92
2024-03-06T19:20:57.114Z,41.90
2024-03-06T19:23:42.674Z,40.17
2024-03-06T19:26:28.595Z,41.42
2024-03-06T19:29:14.130Z,44.20
2024-03-06T19:32:03.933Z,35.70
2024-03-06T19:34:49.509Z,37.05
2024-03-06T19:37:35.178Z,47.47
2024-03-06T19:40:20.885Z,39.78
2024-03-06T19:43:06.392Z,33.13
2024-03-06T19:45:52.045Z,30.27
2024-03-06T19:48:39.019Z,36.83
2024-03-06T19:51:27.046Z,35.88
2024-03-06T19:54:12.627Z,36.38
2024-03-06T19:57:03.606Z,35.17
2024-03-06T19:59:49.174Z,33.17
2024-03-06T20:02:36.897Z,30.13
2024-03-06T20:05:22.268Z,28.40
2024-03-06T20:08:09.121Z,21.05
2024-03-06T20:10:54.904Z,21.88
2024-03-06T20:13:40.681Z,21.85
2024-03-06T20:16:27.469Z,20.60
2024-03-06T20:19:13.122Z,21.33
2024-03-06T20:21:59.214Z,23.20
2024-03-06T20:24:44.523Z,25.15
2024-03-06T20:27:32.685Z,26.85
2024-03-06T20:30:18.533Z,26.30
2024-03-06T20:33:04.183Z,25.73
2024-03-06T20:35:50.180Z,28.85
2024-03-06T20:38:35.922Z,31.33
2024-03-06T20:41:21.536Z,29.70
2024-03-06T20:44:07.296Z,27.83
2024-03-06T20:46:52.793Z,29.48
2024-03-06T20:49:38.762Z,27.25
2024-03-06T20:52:24.665Z,27.80
2024-03-06T20:55:14.075Z,23.23
2024-03-06T20:57:59.861Z,26.92
2024-03-06T21:00:45.383Z,20.10
2024-03-06T21:03:31.176Z,20.75
2024-03-06T21:06:16.851Z,20.65
2024-03-06T21:09:02.609Z,20.88
2024-03-06T21:11:50.109Z,18.17
2024-03-06T21:14:37.992Z,18.17
2024-03-06T21:17:24.833Z,17.10
2024-03-06T21:20:14.323Z,16.92
2024-03-06T21:23:01.290Z,15.52
2024-03-06T21:25:48.843Z,15.70
2024-03-06T21:28:34.884Z,16.35
2024-03-06T21:31:20.473Z,13.85
2024-03-06T21:34:06.300Z,15.10
2024-03-06T21:36:51.758Z,14.82
2024-03-06T21:39:37.903Z,15.35
2024-03-06T21:42:23.632Z,15.38
2024-03-06T21:45:09.746Z,14.70
2024-03-06T21:47:55.399Z,14.48
2024-03-06T21:50:42.974Z,15.57
2024-03-06T21:53:30.973Z,15.60
2024-03-06T21:56:19.889Z,13.88
2024-03-06T21:59:05.826Z,16.40
2024-03-06T22:01:51.323Z,16.38
2024-03-06T22:04:37.083Z,16.15
2024-03-06T22:07:24.548Z,16.33
2024-03-06T22:10:10.014Z,16.08
2024-03-06T22:12:57.623Z,16.45
2024-03-06T22:15:43.156Z,16.38
2024-03-06T22:18:28.907Z,16.65
2024-03-06T22:21:15.009Z,15.95
2024-03-06T22:24:04.372Z,16.83
2024-03-06T22:26:50.141Z,16.45
2024-03-06T22:29:39.096Z,15.88
2024-03-06T22:32:24.937Z,16.40
2024-03-06T22:35:13.301Z,15.15
2024-03-06T22:38:01.836Z,16.67
2024-03-06T22:40:47.357Z,16.27
2024-03-06T22:43:32.921Z,15.02
2024-03-06T22:46:19.706Z,16.35
2024-03-06T22:49:05.244Z,14.73
2024-03-06T22:51:50.788Z,15.32
2024-03-06T22:54:37.546Z,15.20
2024-03-06T22:57:24.137Z,16.52
2024-03-06T23:00:20.711Z,14.77
2024-03-06T23:03:07.185Z,14.85
2024-03-06T23:05:53.054Z,17.58
2024-03-06T23:08:38.617Z,16.00
2024-03-06T23:11:24.500Z,17.08
2024-03-06T23:14:10.904Z,17.42
2024-03-06T23:16:56.586Z,18.15
2024-03-06T23:19:42.190Z,15.55
2024-03-06T23:22:27.992Z,17.67
2024-03-06T23:25:14.964Z,16.15
2024-03-06T23:28:00.661Z,16.45
2024-03-06T23:30:46.217Z,15.88
2024-03-06T23:33:34.340Z,15.65
2024-03-06T23:36:19.885Z,16.08
2024-03-06T23:39:09.830Z,14.40
2024-03-06T23:41:55.690Z,14.93
2024-03-06T23:44:41.168Z,15.30
2024-03-06T23:47:29.355Z,15.80
2024-03-06T23:50:21.834Z,15.80
2024-03-06T23:53:08.436Z,14.88
2024-03-06T23:55:53.928Z,15.05
2024-03-06T23:58:39.801Z,14.70
